ADDS METAR Data INFO
IDs: Format: Raw Decoded Include TAF

Data at: 0743 UTC 23 Jul 2018

KRTN 230653Z AUTO 35015KT 10SM CLR 22/11 A3032 RMK AO2 SLP146 T02220106 403720144
KRTN 230553Z AUTO 34015KT 10SM CLR 22/11 A3032 RMK AO2 SLP148 T02170111 10328 20217 51006
KRTN 230453Z AUTO 36018KT 10SM CLR 23/11 A3031 RMK AO2 SLP148 T02280106
KRTN 230353Z AUTO 36014KT 10SM CLR 24/11 A3031 RMK AO2 SLP153 T02440106
KRTN 230253Z AUTO 35007KT 10SM CLR 25/11 A3029 RMK AO2 SLP150 T02500106 53028
KRTN 230153Z AUTO 35015G22KT 10SM FEW110 27/10 A3024 RMK AO2 PK WND 01032/0105 LTG DSNT S SLP138 T02670100
KRTN 230053Z AUTO 36025G30KT 10SM CLR 29/06 A3022 RMK AO2 PK WND 36030/0050 SLP136 T02940061
KRTN 222353Z AUTO 05013KT 10SM CLR 33/06 A3019 RMK AO2 LTG DSNT NE AND NW SLP120 T03280056 10372 20328 55001
KRTN 222253Z AUTO 09017G22KT 10SM CLR 35/06 A3018 RMK AO2 LTG DSNT NW SLP107 T03500056
KRTN 222153Z AUTO 06016G21KT 10SM CLR 36/06 A3018 RMK AO2 SLP106 T03610056
KRTN 222053Z AUTO 35009G15KT 10SM CLR 37/03 A3019 RMK AO2 LTG DSNT NE SLP109 T03670028 56013
KRTN 221953Z AUTO 20008KT 10SM CLR 35/01 A3020 RMK AO2 LTG DSNT N AND NE SLP115 T03500011
KRTN 221853Z AUTO 12007KT 080V150 10SM CLR 36/02 A3022 RMK AO2 LTG DSNT N SLP113 T03560017
KRTN 221753Z AUTO 20008KT 10SM CLR 34/04 A3024 RMK AO2 SLP122 T03390044 10339 20144 58007
KRTN 221653Z AUTO VRB06KT 10SM CLR 31/04 A3026 RMK AO2 SLP128 T03060044
KRTN 221553Z AUTO VRB04KT 10SM CLR 28/04 A3026 RMK AO2 SLP136 T02780044
KRTN 221453Z AUTO 00000KT 10SM CLR 25/03 A3027 RMK AO2 SLP142 T02500033 58004
KRTN 221353Z AUTO 08005KT 10SM CLR 19/07 A3028 RMK AO2 SLP150 T01940067
KRTN 221253Z AUTO 06007KT 10SM CLR 16/06 A3029 RMK AO2 SLP153 T01560061
KRTN 221153Z AUTO 34005KT 10SM CLR 15/04 A3028 RMK AO2 SLP152 T01500039 10211 20144 53004
KRTN 221053Z AUTO 33006KT 10SM CLR 16/04 A3027 RMK AO2 SLP148 T01560039
KRTN 220953Z AUTO 35007KT 10SM CLR 16/04 A3027 RMK AO2 SLP139 T01610039
KRTN 220853Z AUTO 05003KT 10SM CLR 16/04 A3027 RMK AO2 SLP140 T01610044 56001
KRTN 220753Z AUTO 36003KT 10SM CLR 17/04 A3027 RMK AO2 SLP138 T01720044
KRTN 220653Z AUTO 00000KT 10SM CLR 19/04 A3027 RMK AO2 SLP133 T01940039 403610161
KRTN 220553Z AUTO 00000KT 10SM CLR 22/04 A3027 RMK AO2 SLP134 T02170039 10333 20217 50010
KRTN 220453Z AUTO 15004KT 10SM SCT120 24/04 A3027 RMK AO2 SLP139 T02390039
KRTN 220353Z AUTO 25006KT 10SM CLR 23/03 A3027 RMK AO2 SLP141 T02330033
KRTN 220253Z AUTO 26005KT 10SM CLR 24/03 A3024 RMK AO2 SLP133 T02440028 53015
KRTN 220153Z AUTO 19008KT 10SM CLR 28/02 A3021 RMK AO2 SLP117 T02830022
KRTN 220053Z AUTO 18014KT 10SM CLR 32/02 A3019 RMK AO2 SLP114 T03170022
KRTN 212353Z AUTO 17016KT 10SM CLR 32/02 A3018 RMK AO2 PK WND 16031/2300 SLP115 T03220022 10361 20317 57010
KRTN 212253Z AUTO 16013KT 10SM FEW090 FEW120 32/02 A3020 RMK AO2 SLP117 T03220022
KRTN 212153Z AUTO 18015G27KT 10SM CLR 35/03 A3020 RMK AO2 PK WND 18027/2148 SLP110 T03500028
KRTN 212053Z AUTO 19014G21KT 10SM CLR 35/02 A3022 RMK AO2 PK WND 19026/2026 SLP113 T03500022 56013
KRTN 211953Z AUTO 17016G22KT 10SM CLR 35/02 A3023 RMK AO2 PK WND 19026/1943 LTG DSNT NW SLP112 T03500022